createdAt,value
2017-05-03T00:00:19.486Z,0
2017-05-03T00:01:19.165Z,0
2017-05-03T00:02:19.150Z,0
2017-05-03T00:03:19.437Z,0
2017-05-03T00:04:19.118Z,0
2017-05-03T00:05:19.109Z,0
2017-05-03T00:06:19.388Z,0
2017-05-03T00:07:19.365Z,0
2017-05-03T00:08:19.046Z,0
2017-05-03T00:09:19.025Z,0
2017-05-03T00:10:19.303Z,0
2017-05-03T00:11:19.292Z,0
2017-05-03T00:12:19.279Z,0
2017-05-03T00:13:18.967Z,0
2017-05-03T00:14:18.946Z,0
2017-05-03T00:15:18.930Z,0
2017-05-03T00:16:18.898Z,0
2017-05-03T00:17:18.891Z,0
2017-05-03T00:18:18.877Z,0
2017-05-03T00:19:18.862Z,0
2017-05-03T00:20:19.132Z,0
2017-05-03T00:21:19.125Z,0
2017-05-03T00:22:18.494Z,0
2017-05-03T00:23:18.516Z,0
2017-05-03T00:24:19.069Z,0
2017-05-03T00:25:18.742Z,0
2017-05-03T00:26:19.031Z,0
2017-05-03T00:27:19.012Z,0
2017-05-03T00:28:18.690Z,0
2017-05-03T00:29:18.671Z,0
2017-05-03T00:30:18.648Z,0
2017-05-03T00:31:18.635Z,0
2017-05-03T00:32:18.620Z,0
2017-05-03T00:33:18.607Z,0
2017-05-03T00:34:18.582Z,0
2017-05-03T00:35:18.570Z,0
2017-05-03T00:36:18.551Z,0
2017-05-03T00:37:18.526Z,0
2017-05-03T00:38:18.815Z,0
2017-05-03T00:39:18.813Z,0
2017-05-03T00:40:18.472Z,0
2017-05-03T00:41:18.759Z,0
2017-05-03T00:42:18.447Z,0
2017-05-03T00:43:18.726Z,0
2017-05-03T00:44:18.408Z,0
2017-05-03T00:45:18.084Z,0
2017-05-03T00:46:18.372Z,0
2017-05-03T00:47:18.353Z,0
2017-05-03T00:48:18.343Z,0
2017-05-03T00:49:18.320Z,0
2017-05-03T00:50:18.307Z,0
2017-05-03T00:51:17.979Z,0
2017-05-03T00:52:18.271Z,0
2017-05-03T00:53:18.255Z,0
2017-05-03T00:54:18.235Z,0
2017-05-03T00:55:18.221Z,0
2017-05-03T00:56:18.207Z,0
2017-05-03T00:57:18.181Z,0
2017-05-03T00:58:18.160Z,0
2017-05-03T00:59:18.143Z,0
2017-05-03T01:00:18.447Z,0
2017-05-03T01:01:18.106Z,0
2017-05-03T01:02:18.399Z,0
2017-05-03T01:03:18.406Z,0
2017-05-03T01:04:18.359Z,0
2017-05-03T01:05:18.038Z,0
2017-05-03T01:06:18.019Z,0
2017-05-03T01:07:18.002Z,0
2017-05-03T01:08:18.284Z,0
2017-05-03T01:09:18.279Z,0
2017-05-03T01:10:18.254Z,0
2017-05-03T01:11:17.927Z,0
2017-05-03T01:12:17.911Z,0
2017-05-03T01:13:18.199Z,0
2017-05-03T01:14:17.885Z,0
2017-05-03T01:15:17.853Z,0
2017-05-03T01:16:17.536Z,0
2017-05-03T01:17:17.521Z,0
2017-05-03T01:18:18.110Z,0
2017-05-03T01:19:17.792Z,0
2017-05-03T01:20:18.066Z,0
2017-05-03T01:21:17.759Z,0
2017-05-03T01:22:18.033Z,0
2017-05-03T01:23:18.019Z,0
2017-05-03T01:24:17.995Z,0
2017-05-03T01:25:17.981Z,0
2017-05-03T01:26:17.966Z,0
2017-05-03T01:27:17.645Z,0
2017-05-03T01:28:17.320Z,0
2017-05-03T01:29:17.310Z,0
2017-05-03T01:30:17.590Z,0
2017-05-03T01:31:17.866Z,0
2017-05-03T01:32:17.255Z,0
2017-05-03T01:33:17.836Z,0
2017-05-03T01:34:17.823Z,0
2017-05-03T01:35:17.801Z,0
2017-05-03T01:36:17.784Z,0
2017-05-03T01:37:17.770Z,0
2017-05-03T01:38:17.450Z,0
2017-05-03T01:39:17.732Z,0
2017-05-03T01:40:17.408Z,0
2017-05-03T01:41:17.697Z,0
2017-05-03T01:42:17.683Z,0
2017-05-03T01:43:17.664Z,0
2017-05-03T01:44:17.647Z,0
2017-05-03T01:45:17.367Z,0
2017-05-03T01:46:17.313Z,0
2017-05-03T01:47:16.992Z,0
2017-05-03T01:48:17.582Z,0
2017-05-03T01:49:17.563Z,0
2017-05-03T01:50:17.549Z,0
2017-05-03T01:51:17.524Z,0
2017-05-03T01:52:17.511Z,0
2017-05-03T01:53:17.493Z,0
2017-05-03T01:54:17.473Z,0
2017-05-03T01:55:17.155Z,0
2017-05-03T01:56:16.542Z,0
2017-05-03T01:57:17.127Z,0
2017-05-03T01:58:17.107Z,0
2017-05-03T01:59:17.414Z,0
2017-05-03T02:00:17.375Z,0
2017-05-03T02:01:17.056Z,0
2017-05-03T02:02:17.044Z,0
2017-05-03T02:03:17.328Z,0
2017-05-03T02:04:17.316Z,0
2017-05-03T02:05:16.992Z,0
2017-05-03T02:06:17.275Z,0
2017-05-03T02:07:17.262Z,0
2017-05-03T02:08:17.249Z,0
2017-05-03T02:09:17.230Z,0
2017-05-03T02:10:16.905Z,0
2017-05-03T02:11:16.596Z,0
2017-05-03T02:12:16.576Z,0
2017-05-03T02:13:16.864Z,0
2017-05-03T02:14:16.868Z,0
2017-05-03T02:15:17.132Z,0
2017-05-03T02:16:16.510Z,0
2017-05-03T02:17:17.100Z,0
2017-05-03T02:18:17.093Z,0
2017-05-03T02:19:17.075Z,0
2017-05-03T02:20:16.750Z,0
2017-05-03T02:21:16.731Z,0
2017-05-03T02:22:17.026Z,0
2017-05-03T02:23:17.005Z,0
2017-05-03T02:24:16.684Z,0
2017-05-03T02:25:17.005Z,0
2017-05-03T02:26:16.956Z,0
2017-05-03T02:27:16.636Z,0
2017-05-03T02:28:16.318Z,0
2017-05-03T02:29:16.602Z,0
2017-05-03T02:30:16.886Z,0
2017-05-03T02:31:16.571Z,0
2017-05-03T02:32:16.550Z,0
2017-05-03T02:33:16.530Z,0
2017-05-03T02:34:16.819Z,0
2017-05-03T02:35:16.500Z,0
2017-05-03T02:36:16.784Z,0
2017-05-03T02:37:16.776Z,0
2017-05-03T02:38:16.761Z,0
2017-05-03T02:39:16.738Z,0
2017-05-03T02:40:16.719Z,0
2017-05-03T02:41:16.430Z,0
2017-05-03T02:42:16.085Z,0
2017-05-03T02:43:16.070Z,0
2017-05-03T02:44:16.655Z,0
2017-05-03T02:45:15.733Z,0
2017-05-03T02:46:16.627Z,0
2017-05-03T02:47:16.024Z,0
2017-05-03T02:48:16.584Z,0
2017-05-03T02:49:16.574Z,0
2017-05-03T02:50:15.949Z,0
2017-05-03T02:51:16.532Z,0
2017-05-03T02:52:16.518Z,0
2017-05-03T02:53:16.507Z,0
2017-05-03T02:54:15.890Z,0
2017-05-03T02:55:16.170Z,0
2017-05-03T02:56:16.453Z,0
2017-05-03T02:57:16.437Z,0
2017-05-03T02:58:16.129Z,0
2017-05-03T02:59:16.105Z,0
2017-05-03T03:00:16.389Z,0
2017-05-03T03:01:16.074Z,0
2017-05-03T03:02:16.058Z,0
2017-05-03T03:03:16.041Z,0
2017-05-03T03:04:16.022Z,0
2017-05-03T03:05:16.009Z,0
2017-05-03T03:06:15.687Z,0
2017-05-03T03:07:16.276Z,0
2017-05-03T03:08:15.961Z,0
2017-05-03T03:09:15.943Z,0
2017-05-03T03:10:15.622Z,0
2017-05-03T03:11:15.910Z,0
2017-05-03T03:12:15.896Z,0
2017-05-03T03:13:16.179Z,0
2017-05-03T03:14:15.861Z,0
2017-05-03T03:15:16.141Z,0
2017-05-03T03:16:15.825Z,0
2017-05-03T03:17:15.859Z,0
2017-05-03T03:18:15.795Z,0
2017-05-03T03:19:16.074Z,0
2017-05-03T03:20:15.757Z,0
2017-05-03T03:21:16.043Z,0
2017-05-03T03:22:16.017Z,0
2017-05-03T03:23:16.004Z,0
2017-05-03T03:24:15.990Z,0
2017-05-03T03:25:15.665Z,0
2017-05-03T03:26:15.948Z,0
2017-05-03T03:27:15.633Z,4
2017-05-03T03:28:15.915Z,4
2017-05-03T03:29:15.899Z,0
2017-05-03T03:30:15.577Z,4
2017-05-03T03:31:15.862Z,4
2017-05-03T03:32:15.246Z,4
2017-05-03T03:33:15.828Z,8
2017-05-03T03:34:15.813Z,8
2017-05-03T03:35:15.787Z,8
2017-05-03T03:36:15.167Z,12
2017-05-03T03:37:15.759Z,16
2017-05-03T03:38:15.748Z,16
2017-05-03T03:39:15.420Z,20
2017-05-03T03:40:15.702Z,20
2017-05-03T03:41:15.684Z,24
2017-05-03T03:42:15.678Z,28
2017-05-03T03:43:15.655Z,36
2017-05-03T03:44:15.336Z,36
2017-05-03T03:45:15.612Z,40
2017-05-03T03:46:15.294Z,44
2017-05-03T03:47:15.282Z,52
2017-05-03T03:48:15.295Z,56
2017-05-03T03:49:15.546Z,64
2017-05-03T03:50:15.526Z,76
2017-05-03T03:51:15.207Z,84
2017-05-03T03:52:14.590Z,96
2017-05-03T03:53:15.176Z,108
2017-05-03T03:54:14.554Z,120
2017-05-03T03:55:15.438Z,132
2017-05-03T03:56:15.431Z,148
2017-05-03T03:57:14.809Z,160
2017-05-03T03:58:15.092Z,172
2017-05-03T03:59:15.071Z,184
2017-05-03T04:00:15.359Z,200
2017-05-03T04:01:15.334Z,220
2017-05-03T04:02:15.035Z,228
2017-05-03T04:03:15.006Z,240
2017-05-03T04:04:14.993Z,252
2017-05-03T04:05:15.270Z,276
2017-05-03T04:06:15.251Z,296
2017-05-03T04:07:14.932Z,316
2017-05-03T04:08:14.313Z,336
2017-05-03T04:09:14.900Z,340
2017-05-03T04:10:14.881Z,352
2017-05-03T04:11:15.162Z,380
2017-05-03T04:12:15.151Z,412
2017-05-03T04:13:14.829Z,444
2017-05-03T04:14:15.124Z,488
2017-05-03T04:15:14.798Z,556
2017-05-03T04:16:15.118Z,620
2017-05-03T04:17:14.760Z,652
2017-05-03T04:18:14.747Z,692
2017-05-03T04:19:15.037Z,732
2017-05-03T04:20:15.013Z,796
2017-05-03T04:21:14.386Z,884
2017-05-03T04:22:14.672Z,956
2017-05-03T04:23:14.350Z,1024
2017-05-03T04:24:14.350Z,1088
2017-05-03T04:25:14.926Z,1128
2017-05-03T04:26:14.629Z,1200
2017-05-03T04:27:14.586Z,1284
2017-05-03T04:28:14.568Z,1352
2017-05-03T04:29:14.849Z,1432
2017-05-03T04:30:14.234Z,1516
2017-05-03T04:31:14.215Z,1580
2017-05-03T04:32:14.200Z,1600
2017-05-03T04:33:14.184Z,1628
2017-05-03T04:34:14.468Z,1664
2017-05-03T04:35:14.452Z,1708
2017-05-03T04:36:14.432Z,1740
2017-05-03T04:37:14.719Z,1828
2017-05-03T04:38:14.400Z,1860
2017-05-03T04:39:14.382Z,1880
2017-05-03T04:40:14.063Z,1924
2017-05-03T04:41:14.652Z,1968
2017-05-03T04:42:14.327Z,1988
2017-05-03T04:43:14.015Z,2036
2017-05-03T04:44:14.303Z,2112
2017-05-03T04:45:14.279Z,2128
2017-05-03T04:46:14.264Z,2132
2017-05-03T04:47:14.543Z,2156
2017-05-03T04:48:14.230Z,2192
2017-05-03T04:49:13.912Z,2260
2017-05-03T04:50:14.192Z,2400
2017-05-03T04:51:14.178Z,2600
2017-05-03T04:52:14.462Z,2812
2017-05-03T04:53:14.147Z,3060
2017-05-03T04:54:14.133Z,3152
2017-05-03T04:55:14.112Z,3196
2017-05-03T04:56:14.092Z,3268
2017-05-03T04:57:14.076Z,3424
2017-05-03T04:58:14.367Z,3592
2017-05-03T04:59:14.350Z,3704
2017-05-03T05:00:14.326Z,3676
2017-05-03T05:01:14.008Z,3736
2017-05-03T05:02:13.994Z,3836
2017-05-03T05:03:14.276Z,4052
2017-05-03T05:04:14.257Z,4372
2017-05-03T05:05:14.237Z,4548
2017-05-03T05:06:14.227Z,4632
2017-05-03T05:07:13.905Z,4844
2017-05-03T05:08:14.194Z,5128
2017-05-03T05:09:14.220Z,5164
2017-05-03T05:10:14.153Z,5124
2017-05-03T05:11:13.841Z,5128
2017-05-03T05:12:13.817Z,5232
2017-05-03T05:13:14.102Z,5320
2017-05-03T05:14:13.795Z,5388
2017-05-03T05:15:14.074Z,5424
2017-05-03T05:16:14.060Z,5392
2017-05-03T05:17:14.039Z,5476
2017-05-03T05:18:14.023Z,5640
2017-05-03T05:19:14.009Z,5856
2017-05-03T05:20:13.983Z,6128
2017-05-03T05:21:13.680Z,6412
2017-05-03T05:22:13.953Z,6304
2017-05-03T05:23:13.937Z,6232
2017-05-03T05:24:13.918Z,6248
2017-05-03T05:25:13.595Z,6536
2017-05-03T05:26:13.887Z,6768
2017-05-03T05:27:13.870Z,7248
2017-05-03T05:28:13.551Z,7504
2017-05-03T05:29:13.839Z,7616
2017-05-03T05:30:13.515Z,7712
2017-05-03T05:31:13.497Z,7804
2017-05-03T05:32:13.781Z,7904
2017-05-03T05:33:13.470Z,7984
2017-05-03T05:34:13.448Z,7948
2017-05-03T05:35:13.433Z,7980
2017-05-03T05:36:13.723Z,7888
2017-05-03T05:37:13.696Z,7692
2017-05-03T05:38:13.382Z,7564
2017-05-03T05:39:13.673Z,7456
2017-05-03T05:40:13.658Z,7572
2017-05-03T05:41:13.632Z,7604
2017-05-03T05:42:13.617Z,7920
2017-05-03T05:43:13.598Z,8324
2017-05-03T05:44:13.579Z,8796
2017-05-03T05:45:13.563Z,8928
2017-05-03T05:46:13.545Z,9184
2017-05-03T05:47:13.230Z,9404
2017-05-03T05:48:13.517Z,9604
2017-05-03T05:49:13.508Z,9748
2017-05-03T05:50:12.879Z,10080
2017-05-03T05:51:13.463Z,10308
2017-05-03T05:52:12.845Z,10748
2017-05-03T05:53:13.466Z,11084
2017-05-03T05:54:13.417Z,11604
2017-05-03T05:55:13.125Z,11416
2017-05-03T05:56:13.378Z,11176
2017-05-03T05:57:13.067Z,11104
2017-05-03T05:58:12.742Z,11092
2017-05-03T05:59:13.334Z,11020
2017-05-03T06:00:12.713Z,11000
2017-05-03T06:01:12.996Z,11440
2017-05-03T06:02:12.679Z,11964
2017-05-03T06:03:12.964Z,12156
2017-05-03T06:04:12.951Z,12268
2017-05-03T06:05:13.227Z,12424
2017-05-03T06:06:12.911Z,12472
2017-05-03T06:07:12.895Z,12760
2017-05-03T06:08:12.878Z,13128
2017-05-03T06:09:13.165Z,13304
2017-05-03T06:10:12.852Z,12884
2017-05-03T06:11:12.831Z,12696
2017-05-03T06:12:12.815Z,12760
2017-05-03T06:13:13.109Z,12772
2017-05-03T06:14:12.792Z,12908
2017-05-03T06:15:13.063Z,13352
2017-05-03T06:16:13.050Z,13840
2017-05-03T06:17:13.035Z,14052
2017-05-03T06:18:12.723Z,13564
2017-05-03T06:19:12.701Z,14120
2017-05-03T06:20:12.383Z,15180
2017-05-03T06:21:12.669Z,16432
2017-05-03T06:22:12.649Z,17400
2017-05-03T06:23:12.637Z,19040
2017-05-03T06:24:12.619Z,19232
2017-05-03T06:25:12.592Z,17604
2017-05-03T06:26:12.582Z,18944
2017-05-03T06:27:12.866Z,20416
2017-05-03T06:28:12.971Z,20736
2017-05-03T06:29:12.835Z,20192
2017-05-03T06:30:12.511Z,18144
2017-05-03T06:31:12.495Z,15764
2017-05-03T06:32:12.783Z,14200
2017-05-03T06:33:12.755Z,14036
2017-05-03T06:34:12.447Z,14464
2017-05-03T06:35:12.726Z,13772
2017-05-03T06:36:12.715Z,13508
2017-05-03T06:37:12.389Z,13888
2017-05-03T06:38:12.671Z,13784
2017-05-03T06:39:12.657Z,13084
2017-05-03T06:40:12.037Z,12848
2017-05-03T06:41:12.625Z,12620
2017-05-03T06:42:12.604Z,13112
2017-05-03T06:43:12.284Z,13640
2017-05-03T06:44:12.570Z,14360
2017-05-03T06:45:12.254Z,14516
2017-05-03T06:46:12.261Z,14628
2017-05-03T06:47:12.213Z,14712
2017-05-03T06:48:12.202Z,14580
2017-05-03T06:49:12.190Z,14764
2017-05-03T06:50:12.165Z,15392
2017-05-03T06:51:12.447Z,15680
2017-05-03T06:52:12.425Z,15956
2017-05-03T06:53:12.419Z,16300
2017-05-03T06:54:12.139Z,15488
2017-05-03T06:55:12.371Z,14632
2017-05-03T06:56:12.055Z,13968
2017-05-03T06:57:12.341Z,13604
2017-05-03T06:58:12.329Z,13956
2017-05-03T06:59:12.001Z,15412
2017-05-03T07:00:11.987Z,16420
2017-05-03T07:01:12.268Z,16340
2017-05-03T07:02:11.948Z,15732
2017-05-03T07:03:12.236Z,15772
2017-05-03T07:04:12.219Z,15824
2017-05-03T07:05:11.895Z,15368
2017-05-03T07:06:12.179Z,16236
2017-05-03T07:07:12.163Z,16484
2017-05-03T07:08:12.149Z,15412
2017-05-03T07:09:12.128Z,14740
2017-05-03T07:10:11.806Z,13628
2017-05-03T07:11:12.094Z,13676
2017-05-03T07:12:12.073Z,16088
2017-05-03T07:13:12.054Z,20256
2017-05-03T07:14:12.043Z,20896
2017-05-03T07:15:11.718Z,20992
2017-05-03T07:16:12.005Z,23584
2017-05-03T07:17:11.982Z,20768
2017-05-03T07:18:11.667Z,21408
2017-05-03T07:19:11.952Z,23744
2017-05-03T07:20:11.932Z,23680
2017-05-03T07:21:11.921Z,23232
2017-05-03T07:22:11.593Z,22688
2017-05-03T07:23:11.589Z,23136
2017-05-03T07:24:11.565Z,21504
2017-05-03T07:25:11.846Z,22784
2017-05-03T07:26:11.525Z,25184
2017-05-03T07:27:11.814Z,27776
2017-05-03T07:28:11.796Z,28896
2017-05-03T07:29:11.781Z,29216
2017-05-03T07:30:11.459Z,32352
2017-05-03T07:31:11.485Z,36416
2017-05-03T07:32:11.740Z,31104
2017-05-03T07:33:11.712Z,31680
2017-05-03T07:34:11.393Z,30912
2017-05-03T07:35:11.681Z,31680
2017-05-03T07:36:11.657Z,31360
2017-05-03T07:37:11.647Z,33920
2017-05-03T07:38:11.631Z,32160
2017-05-03T07:39:11.615Z,30720
2017-05-03T07:40:11.296Z,35776
2017-05-03T07:41:11.583Z,36576
2017-05-03T07:42:11.261Z,39552
2017-05-03T07:43:11.549Z,44416
2017-05-03T07:44:11.535Z,48672
2017-05-03T07:45:11.522Z,48288
2017-05-03T07:46:11.198Z,52896
2017-05-03T07:47:11.492Z,61632
2017-05-03T07:48:11.503Z,69920
2017-05-03T07:49:11.450Z,57568
2017-05-03T07:50:11.136Z,59072
2017-05-03T07:51:11.416Z,54688
2017-05-03T07:52:11.411Z,39584
2017-05-03T07:53:11.388Z,43680
2017-05-03T07:54:11.377Z,43040
2017-05-03T07:55:11.362Z,40928
2017-05-03T07:56:11.357Z,50784
2017-05-03T07:57:11.331Z,54976
2017-05-03T07:58:11.318Z,52224
2017-05-03T07:59:11.301Z,54976
2017-05-03T08:00:11.292Z,54752
2017-05-03T08:01:11.276Z,59392
2017-05-03T08:02:11.268Z,64640
2017-05-03T08:03:11.300Z,64992
2017-05-03T08:04:11.232Z,64608
2017-05-03T08:05:11.228Z,71328
2017-05-03T08:06:11.211Z,56064
2017-05-03T08:07:11.204Z,73056
2017-05-03T08:08:11.185Z,68928
2017-05-03T08:09:11.178Z,61024
2017-05-03T08:10:11.160Z,61312
2017-05-03T08:11:11.141Z,56352
2017-05-03T08:12:11.139Z,59616
2017-05-03T08:13:11.126Z,69088
2017-05-03T08:14:11.162Z,83840
2017-05-03T08:15:11.093Z,70528
2017-05-03T08:16:11.082Z,70048
2017-05-03T08:17:11.064Z,76704
2017-05-03T08:18:11.058Z,88640
2017-05-03T08:19:11.045Z,79520
2017-05-03T08:20:11.024Z,60384
2017-05-03T08:21:11.019Z,75296
2017-05-03T08:22:10.708Z,74816
2017-05-03T08:23:10.997Z,75680
2017-05-03T08:24:10.677Z,78688
2017-05-03T08:25:10.967Z,86432
2017-05-03T08:26:10.957Z,82464
2017-05-03T08:27:10.642Z,75104
2017-05-03T08:28:10.931Z,79552
2017-05-03T08:29:10.924Z,76896
2017-05-03T08:30:10.612Z,92384
2017-05-03T08:31:10.298Z,90656
2017-05-03T08:32:10.895Z,82464
2017-05-03T08:33:10.576Z,67360
2017-05-03T08:34:10.867Z,73888
2017-05-03T08:35:10.858Z,72960
2017-05-03T08:36:10.848Z,74336
2017-05-03T08:37:10.837Z,57856
2017-05-03T08:38:10.818Z,54912
2017-05-03T08:39:10.825Z,52672
2017-05-03T08:40:10.807Z,80704
2017-05-03T08:41:10.489Z,94144
2017-05-03T08:42:10.168Z,83424
2017-05-03T08:43:10.473Z,65408
2017-05-03T08:44:10.755Z,50976
2017-05-03T08:45:10.749Z,60096
2017-05-03T08:46:10.434Z,67680
2017-05-03T08:47:10.116Z,66720
2017-05-03T08:48:10.711Z,72512
2017-05-03T08:49:10.698Z,72960
2017-05-03T08:50:10.083Z,73856
2017-05-03T08:51:10.671Z,78208
2017-05-03T08:52:10.659Z,82304
2017-05-03T08:53:10.651Z,98816
2017-05-03T08:54:10.639Z,98528
2017-05-03T08:55:10.323Z,100416
2017-05-03T08:56:10.311Z,88480
2017-05-03T08:57:10.593Z,92704
2017-05-03T08:58:10.283Z,68480
2017-05-03T08:59:09.971Z,82272
2017-05-03T09:00:10.291Z,73088
2017-05-03T09:01:09.937Z,92480
2017-05-03T09:02:10.536Z,75488
2017-05-03T09:03:10.217Z,62272
2017-05-03T09:04:09.903Z,76160
2017-05-03T09:05:09.892Z,75808
2017-05-03T09:06:09.875Z,102368
2017-05-03T09:07:09.861Z,102560
2017-05-03T09:08:10.459Z,85760
2017-05-03T09:09:10.142Z,66464
2017-05-03T09:10:10.427Z,74048
2017-05-03T09:11:10.414Z,58784
2017-05-03T09:12:10.102Z,79424
2017-05-03T09:13:10.393Z,77152
2017-05-03T09:14:10.076Z,73888
2017-05-03T09:15:09.763Z,70848
2017-05-03T09:16:10.353Z,69696
2017-05-03T09:17:10.039Z,59136
2017-05-03T09:18:10.332Z,63648
2017-05-03T09:19:10.318Z,121536
2017-05-03T09:20:10.308Z,114016
2017-05-03T09:21:09.991Z,131552
2017-05-03T09:22:09.975Z,88448
2017-05-03T09:23:10.265Z,84384
2017-05-03T09:24:10.247Z,78176
2017-05-03T09:25:10.249Z,100992
2017-05-03T09:26:10.229Z,99648
2017-05-03T09:27:09.611Z,64704
2017-05-03T09:28:10.207Z,55584
2017-05-03T09:29:10.195Z,57600
2017-05-03T09:30:09.873Z,77312
2017-05-03T09:31:09.859Z,70880
2017-05-03T09:32:09.849Z,82528
2017-05-03T09:33:10.141Z,104960
2017-05-03T09:34:09.821Z,86528
2017-05-03T09:35:10.150Z,87808
2017-05-03T09:36:09.797Z,92288
2017-05-03T09:37:10.085Z,91392
2017-05-03T09:38:09.770Z,90464
2017-05-03T09:39:10.058Z,120448
2017-05-03T09:40:10.045Z,74432
2017-05-03T09:41:10.034Z,155136
2017-05-03T09:42:09.731Z,119712
2017-05-03T09:43:10.012Z,123552
2017-05-03T09:44:10.004Z,88672
2017-05-03T09:45:09.883Z,123072
2017-05-03T09:46:09.697Z,96000
2017-05-03T09:47:09.957Z,128096
2017-05-03T09:48:09.942Z,71360
2017-05-03T09:49:09.936Z,72384
2017-05-03T09:50:09.621Z,114528
2017-05-03T09:51:09.911Z,80448
2017-05-03T09:52:09.893Z,84096
2017-05-03T09:53:09.877Z,82880
2017-05-03T09:54:09.879Z,93504
2017-05-03T09:55:09.556Z,99840
2017-05-03T09:56:09.846Z,127232
2017-05-03T09:57:09.830Z,106208
2017-05-03T09:58:09.830Z,113600
2017-05-03T09:59:09.806Z,126976
2017-05-03T10:00:09.496Z,129568
2017-05-03T10:01:09.524Z,62496
2017-05-03T10:02:09.172Z,110848
2017-05-03T10:03:09.461Z,108320
2017-05-03T10:04:09.450Z,113312
2017-05-03T10:05:09.740Z,104544
2017-05-03T10:06:09.436Z,120832
2017-05-03T10:07:09.721Z,102560
2017-05-03T10:08:09.109Z,119200
2017-05-03T10:09:09.703Z,52576
2017-05-03T10:10:09.389Z,126624
2017-05-03T10:11:09.880Z,125056
2017-05-03T10:12:09.574Z,121152
2017-05-03T10:13:09.657Z,109728
2017-05-03T10:14:09.651Z,63264
2017-05-03T10:15:09.633Z,79392
2017-05-03T10:16:09.326Z,111424
2017-05-03T10:17:09.623Z,66976
2017-05-03T10:18:09.305Z,58848
2017-05-03T10:19:09.603Z,69568
2017-05-03T10:20:09.588Z,67232
2017-05-03T10:21:09.600Z,70624
2017-05-03T10:22:09.571Z,96000
2017-05-03T10:23:09.559Z,70752
2017-05-03T10:24:09.246Z,69536
2017-05-03T10:25:09.542Z,68160
2017-05-03T10:26:09.514Z,81248
2017-05-03T10:27:09.508Z,77440
2017-05-03T10:28:09.498Z,75712
2017-05-03T10:29:09.487Z,85920
2017-05-03T10:30:09.172Z,84128
2017-05-03T10:31:09.159Z,77632
2017-05-03T10:32:09.457Z,84800
2017-05-03T10:33:09.134Z,78144
2017-05-03T10:34:09.423Z,104352
2017-05-03T10:35:09.416Z,77536
2017-05-03T10:36:09.401Z,68448
2017-05-03T10:37:09.385Z,72288
2017-05-03T10:38:09.381Z,66720
2017-05-03T10:39:09.362Z,68512
2017-05-03T10:40:09.352Z,82368
2017-05-03T10:41:09.042Z,125152
2017-05-03T10:42:22.725Z,71392
2017-05-03T10:43:09.328Z,72128
2017-05-03T10:44:09.305Z,75552
2017-05-03T10:45:09.707Z,62912
2017-05-03T10:46:09.285Z,60736
2017-05-03T10:47:09.491Z,57184
2017-05-03T10:48:09.266Z,59520
2017-05-03T10:49:09.250Z,58816
2017-05-03T10:50:09.276Z,59360
2017-05-03T10:51:09.432Z,62208
2017-05-03T10:52:09.216Z,68320
2017-05-03T10:53:09.208Z,66752
2017-05-03T10:54:09.194Z,63872
2017-05-03T10:55:09.189Z,65664
2017-05-03T10:56:09.171Z,72736
2017-05-03T10:57:09.160Z,83744
2017-05-03T10:58:09.150Z,94912
2017-05-03T10:59:09.135Z,86816
2017-05-03T11:00:09.127Z,72928
2017-05-03T11:01:09.106Z,71616
2017-05-03T11:02:09.121Z,75360
2017-05-03T11:03:09.092Z,74656
2017-05-03T11:04:09.085Z,76352
2017-05-03T11:05:09.065Z,91200
2017-05-03T11:06:08.752Z,175840
2017-05-03T11:07:09.041Z,78848
2017-05-03T11:08:09.033Z,71520
2017-05-03T11:09:09.022Z,64128
2017-05-03T11:10:08.708Z,66048
2017-05-03T11:11:08.998Z,69120
2017-05-03T11:12:08.688Z,62656
2017-05-03T11:13:08.975Z,86304
2017-05-03T11:14:08.970Z,62144
2017-05-03T11:15:08.956Z,50624
2017-05-03T11:16:08.948Z,50080
2017-05-03T11:17:09.188Z,55552
2017-05-03T11:18:08.924Z,68768
2017-05-03T11:19:08.920Z,98784
2017-05-03T11:20:08.602Z,88064
2017-05-03T11:21:08.895Z,71104
2017-05-03T11:22:09.101Z,67488
2017-05-03T11:23:08.781Z,68576
2017-05-03T11:24:08.859Z,68672
2017-05-03T11:25:08.547Z,68288
2017-05-03T11:26:08.542Z,70976
2017-05-03T11:27:09.032Z,82272
2017-05-03T11:28:08.815Z,68384
2017-05-03T11:29:08.801Z,60224
2017-05-03T11:30:08.792Z,62272
2017-05-03T11:31:08.779Z,64832
2017-05-03T11:32:08.164Z,69728
2017-05-03T11:33:08.150Z,58912
2017-05-03T11:34:08.747Z,59776
2017-05-03T11:35:08.735Z,61440
2017-05-03T11:36:08.422Z,62112
2017-05-03T11:37:08.706Z,63136
2017-05-03T11:38:08.391Z,65760
2017-05-03T11:39:08.687Z,68864
2017-05-03T11:40:08.676Z,71808
2017-05-03T11:41:08.661Z,74656
2017-05-03T11:42:08.647Z,77184
2017-05-03T11:43:08.334Z,79104
2017-05-03T11:44:08.622Z,80000
2017-05-03T11:45:08.615Z,79264
2017-05-03T11:46:08.294Z,78816
2017-05-03T11:47:08.586Z,81280
2017-05-03T11:48:08.577Z,81024
2017-05-03T11:49:08.569Z,80960
2017-05-03T11:50:08.258Z,81824
2017-05-03T11:51:07.948Z,88288
2017-05-03T11:52:08.735Z,68352
2017-05-03T11:53:08.224Z,59968
2017-05-03T11:54:08.208Z,55584
2017-05-03T11:55:08.509Z,52896
2017-05-03T11:56:08.189Z,52352
2017-05-03T11:57:23.097Z,54784
2017-05-03T11:58:08.682Z,56928
2017-05-03T11:59:08.460Z,59776
2017-05-03T12:00:08.155Z,62144
2017-05-03T12:01:08.138Z,66816
2017-05-03T12:02:08.124Z,92256
2017-05-03T12:03:08.114Z,130496
2017-05-03T12:04:08.409Z,77728
2017-05-03T12:05:08.399Z,70400
2017-05-03T12:06:08.083Z,71232
2017-05-03T12:07:08.378Z,76544
2017-05-03T12:08:08.065Z,84608
2017-05-03T12:09:08.352Z,79872
2017-05-03T12:10:08.350Z,83712
2017-05-03T12:11:08.335Z,106304
2017-05-03T12:12:08.028Z,91328
2017-05-03T12:13:08.319Z,85184
2017-05-03T12:14:08.311Z,76832
2017-05-03T12:15:07.999Z,69376
2017-05-03T12:16:08.295Z,65312
2017-05-03T12:17:08.277Z,66080
2017-05-03T12:18:08.270Z,71808
2017-05-03T12:19:08.260Z,68032
2017-05-03T12:20:07.958Z,66336
2017-05-03T12:21:07.641Z,65824
2017-05-03T12:22:08.239Z,67104
2017-05-03T12:23:08.226Z,70208
2017-05-03T12:24:08.219Z,76832
2017-05-03T12:25:07.911Z,95680
2017-05-03T12:26:08.197Z,80704
2017-05-03T12:27:08.194Z,73856
2017-05-03T12:28:08.180Z,69504
2017-05-03T12:29:08.171Z,65536
2017-05-03T12:30:08.163Z,61824
2017-05-03T12:31:08.150Z,57728
2017-05-03T12:32:07.842Z,52704
2017-05-03T12:33:07.832Z,47232
2017-05-03T12:34:07.821Z,41440
2017-05-03T12:35:07.510Z,36160
2017-05-03T12:36:08.103Z,32128
2017-05-03T12:37:08.095Z,29376
2017-05-03T12:38:08.289Z,27392
2017-05-03T12:39:08.289Z,25824
2017-05-03T12:40:07.759Z,24960
2017-05-03T12:41:08.060Z,24288
2017-05-03T12:42:08.047Z,24000
2017-05-03T12:43:07.730Z,24928
2017-05-03T12:44:08.014Z,25568
2017-05-03T12:45:08.007Z,25280
2017-05-03T12:46:07.703Z,24864
2017-05-03T12:47:07.982Z,25376
2017-05-03T12:48:07.976Z,25152
2017-05-03T12:49:07.658Z,24576
2017-05-03T12:50:07.943Z,24160
2017-05-03T12:51:07.934Z,24000
2017-05-03T12:52:07.917Z,23936
2017-05-03T12:53:07.907Z,24096
2017-05-03T12:54:07.588Z,23744
2017-05-03T12:55:07.881Z,23328
2017-05-03T12:56:07.860Z,23296
2017-05-03T12:57:07.546Z,23552
2017-05-03T12:58:07.831Z,23872
2017-05-03T12:59:07.819Z,23616
2017-05-03T13:00:07.802Z,23232
2017-05-03T13:01:07.787Z,22848
2017-05-03T13:02:07.768Z,22944
2017-05-03T13:03:07.955Z,23520
2017-05-03T13:04:07.741Z,23968
2017-05-03T13:05:07.418Z,24672
2017-05-03T13:06:07.703Z,25440
2017-05-03T13:07:07.693Z,28384
2017-05-03T13:08:07.675Z,32064
2017-05-03T13:09:07.660Z,35680
2017-05-03T13:10:07.342Z,39360
2017-05-03T13:11:07.625Z,43648
2017-05-03T13:12:07.610Z,48256
2017-05-03T13:13:07.295Z,53024
2017-05-03T13:14:07.278Z,58272
2017-05-03T13:15:07.566Z,66368
2017-05-03T13:16:07.551Z,76384
2017-05-03T13:17:07.536Z,96416
2017-05-03T13:18:07.518Z,107808
2017-05-03T13:19:07.503Z,96320
2017-05-03T13:20:07.492Z,86880
2017-05-03T13:21:07.471Z,87136
2017-05-03T13:22:07.459Z,109472
2017-05-03T13:23:07.439Z,153952
2017-05-03T13:24:07.433Z,128768
2017-05-03T13:25:07.425Z,105888